Time;durP1;ratioP1;P1;durP2;ratioP2;P2;SDS_P1;SDS_P2;PMS_P1;PMS_P2;Temp;Humidity;BMP_temperature;BMP_pressure;BME280_temperature;BME280_humidity;BME280_pressure;Samples;Min_cycle;Max_cycle;Signal;HPM_P1;HPM_P2
2021/05/10 00:00:00;;;;;;;16.30;11.77;;;20.90;86.70;;;;;;5078498;28;20607;-72
2021/05/10 00:02:26;;;;;;;12.83;12.03;;;20.90;87.40;;;;;;5085132;28;20473;-72
2021/05/10 00:04:53;;;;;;;12.57;11.57;;;20.80;87.40;;;;;;5081020;28;20454;-72
2021/05/10 00:07:19;;;;;;;13.37;12.43;;;20.80;86.70;;;;;;5084083;28;20465;-72
2021/05/10 00:09:45;;;;;;;12.67;11.90;;;20.80;87.20;;;;;;5075976;28;20861;-72
2021/05/10 00:12:13;;;;;;;13.47;11.97;;;20.70;87.30;;;;;;5085013;28;20486;-72
2021/05/10 00:14:42;;;;;;;12.53;11.70;;;20.70;86.90;;;;;;5082959;28;20638;-72
2021/05/10 00:17:09;;;;;;;12.60;11.60;;;20.80;85.20;;;;;;5077072;28;20466;-72
2021/05/10 00:19:36;;;;;;;13.73;12.50;;;21.00;83.90;;;;;;5077576;28;20459;-72
2021/05/10 00:22:04;;;;;;;12.70;11.90;;;21.00;83.10;;;;;;5073244;28;20465;-72
2021/05/10 00:24:30;;;;;;;13.23;12.03;;;21.10;84.20;;;;;;5074989;28;20705;-72
2021/05/10 00:26:57;;;;;;;12.70;11.50;;;21.10;83.90;;;;;;5083844;28;20469;-72
2021/05/10 00:29:24;;;;;;;12.83;11.83;;;21.00;84.80;;;;;;5080859;28;20836;-72
2021/05/10 00:31:51;;;;;;;13.07;12.20;;;20.90;84.90;;;;;;5080002;28;20490;-72
2021/05/10 00:34:17;;;;;;;12.60;11.80;;;20.80;85.60;;;;;;5082696;28;20458;-72
2021/05/10 00:36:44;;;;;;;12.87;11.90;;;20.80;85.90;;;;;;5074802;28;20979;-72
2021/05/10 00:39:10;;;;;;;20.53;12.50;;;20.80;86.10;;;;;;5075624;28;20491;-72
2021/05/10 00:41:37;;;;;;;13.00;12.20;;;20.70;87.00;;;;;;5084486;28;20459;-72
2021/05/10 00:44:04;;;;;;;13.10;12.07;;;20.50;88.00;;;;;;5083424;28;20515;-72
2021/05/10 00:46:32;;;;;;;17.80;12.63;;;20.40;88.60;;;;;;5083880;28;21287;-72
2021/05/10 00:49:00;;;;;;;13.40;12.30;;;20.30;90.00;;;;;;5074414;28;20468;-72
2021/05/10 00:51:26;;;;;;;16.93;13.60;;;20.20;89.30;;;;;;5079318;28;20470;-72
2021/05/10 00:53:53;;;;;;;14.00;12.67;;;20.10;89.90;;;;;;5079762;28;20482;-72
2021/05/10 00:56:19;;;;;;;13.80;12.47;;;20.00;90.10;;;;;;5077956;28;20483;-72
2021/05/10 00:58:46;;;;;;;14.47;13.00;;;20.00;90.00;;;;;;5080429;28;20462;-71
2021/05/10 01:01:13;;;;;;;15.33;12.33;;;19.90;90.20;;;;;;5082753;28;20477;-72
2021/05/10 01:03:41;;;;;;;17.40;12.70;;;19.90;90.40;;;;;;5080892;28;20454;-72
2021/05/10 01:06:09;;;;;;;14.00;13.00;;;19.90;90.20;;;;;;5080352;28;20469;-72
2021/05/10 01:08:36;;;;;;;17.00;13.50;;;19.90;90.00;;;;;;5080223;28;20718;-71
2021/05/10 01:11:02;;;;;;;13.17;12.07;;;20.10;88.50;;;;;;5082185;28;20969;-71
2021/05/10 01:13:30;;;;;;;12.90;11.93;;;20.20;87.30;;;;;;5079746;28;20490;-72
2021/05/10 01:15:58;;;;;;;13.10;12.30;;;20.40;86.80;;;;;;5080951;28;20515;-72
2021/05/10 01:18:24;;;;;;;12.60;12.00;;;20.50;85.20;;;;;;5076070;28;20859;-72
2021/05/10 01:20:52;;;;;;;13.37;12.50;;;20.80;84.20;;;;;;5079548;28;20518;-72
2021/05/10 01:23:19;;;;;;;13.17;12.13;;;21.00;82.10;;;;;;5082690;28;20464;-71
2021/05/10 01:25:47;;;;;;;12.50;11.90;;;21.20;81.20;;;;;;5076712;28;20848;-72
2021/05/10 01:28:13;;;;;;;12.87;11.80;;;21.40;79.60;;;;;;5080963;28;20513;-71
2021/05/10 01:30:44;;;;;;;12.70;12.07;;;21.50;79.40;;;;;;5081871;28;20985;-72
2021/05/10 01:33:11;;;;;;;12.90;12.17;;;21.50;79.10;;;;;;5077852;28;20497;-71
2021/05/10 01:35:41;;;;;;;12.37;11.77;;;21.60;78.20;;;;;;5075676;28;21096;-72
2021/05/10 01:38:08;;;;;;;12.93;12.17;;;21.70;78.10;;;;;;5080990;28;20461;-72
2021/05/10 01:40:36;;;;;;;12.40;11.80;;;21.80;77.10;;;;;;5079357;28;20983;-72
2021/05/10 01:43:04;;;;;;;12.83;11.83;;;21.80;76.50;;;;;;5084741;28;20690;-71
2021/05/10 01:45:31;;;;;;;13.10;12.30;;;21.90;76.50;;;;;;5084353;28;20835;-71
2021/05/10 01:48:01;;;;;;;12.97;12.07;;;21.90;76.10;;;;;;5078409;28;20535;-72
2021/05/10 01:50:28;;;;;;;12.40;11.80;;;22.00;76.10;;;;;;5081542;28;20465;-72
2021/05/10 01:52:55;;;;;;;13.00;12.30;;;21.90;76.30;;;;;;5073722;28;20490;-72
2021/05/10 01:55:23;;;;;;;12.77;11.93;;;21.90;76.50;;;;;;5084226;28;20477;-72
2021/05/10 01:57:53;;;;;;;12.60;11.90;;;21.90;76.40;;;;;;5082707;28;20485;-72
2021/05/10 02:00:23;;;;;;;11.93;11.13;;;21.80;76.40;;;;;;5077230;28;20799;-72
2021/05/10 02:02:49;;;;;;;12.17;11.57;;;21.80;76.60;;;;;;5080143;28;20463;-72
2021/05/10 02:05:17;;;;;;;12.80;11.63;;;21.80;76.60;;;;;;5080823;28;20470;-72
2021/05/10 02:07:46;;;;;;;12.80;12.07;;;21.80;76.60;;;;;;5082739;28;20457;-72
2021/05/10 02:10:15;;;;;;;13.03;11.93;;;21.80;76.60;;;;;;5079049;28;20458;-72
2021/05/10 02:12:52;;;;;;;13.50;12.60;;;21.70;77.10;;;;;;5076879;28;20853;-72
2021/05/10 02:15:20;;;;;;;12.37;11.77;;;21.70;77.70;;;;;;5078043;28;20697;-72
2021/05/10 02:17:47;;;;;;;12.73;11.70;;;21.60;78.30;;;;;;5081526;28;20462;-72
2021/05/10 02:20:14;;;;;;;12.47;11.50;;;21.50;78.90;;;;;;5074485;28;21180;-72
2021/05/10 02:22:40;;;;;;;12.80;12.10;;;21.50;79.00;;;;;;5077985;28;20455;-72
2021/05/10 02:25:07;;;;;;;12.17;11.57;;;21.50;79.20;;;;;;5074507;28;20958;-72
2021/05/10 02:27:34;;;;;;;13.80;12.80;;;21.40;79.70;;;;;;5075459;28;20462;-72
2021/05/10 02:30:00;;;;;;;13.03;12.23;;;21.20;80.40;;;;;;5080274;28;20970;-72
2021/05/10 02:32:28;;;;;;;13.70;12.80;;;21.20;81.30;;;;;;5079294;28;20488;-72
2021/05/10 02:34:55;;;;;;;14.33;13.40;;;21.00;82.10;;;;;;5079126;28;20828;-72
2021/05/10 02:37:21;;;;;;;12.87;12.07;;;21.00;81.90;;;;;;5077162;28;20949;-71
2021/05/10 02:39:49;;;;;;;13.03;12.17;;;21.10;81.90;;;;;;5081876;28;20450;-72
2021/05/10 02:42:15;;;;;;;12.23;11.53;;;21.10;81.00;;;;;;5079820;28;20499;-72
2021/05/10 02:44:42;;;;;;;12.13;11.53;;;21.00;82.20;;;;;;5077697;28;20898;-72
2021/05/10 02:47:08;;;;;;;14.17;12.73;;;21.00;82.50;;;;;;5081156;28;21179;-72
2021/05/10 02:49:35;;;;;;;13.60;12.90;;;20.90;82.80;;;;;;5080490;28;21174;-72
2021/05/10 02:52:02;;;;;;;12.13;11.63;;;20.90;82.40;;;;;;5080075;28;20493;-72
2021/05/10 02:54:29;;;;;;;12.43;11.83;;;20.90;82.90;;;;;;5076529;28;20473;-72
2021/05/10 02:56:55;;;;;;;12.20;11.70;;;20.90;82.80;;;;;;5080388;28;20528;-72
2021/05/10 02:59:21;;;;;;;12.40;11.67;;;20.90;83.50;;;;;;5080081;28;20686;-72
2021/05/10 03:01:48;;;;;;;12.57;11.80;;;20.80;82.60;;;;;;5078727;28;21129;-71
2021/05/10 03:04:14;;;;;;;12.63;11.93;;;20.80;82.70;;;;;;5076595;28;20568;-72
2021/05/10 03:06:42;;;;;;;12.30;11.70;;;20.80;82.90;;;;;;5077665;28;21133;-72
2021/05/10 03:09:08;;;;;;;12.33;11.73;;;20.80;83.00;;;;;;5081014;28;20461;-72
2021/05/10 03:11:35;;;;;;;12.47;11.87;;;20.70;82.70;;;;;;5073285;28;20582;-72
2021/05/10 03:14:02;;;;;;;13.30;12.47;;;20.70;82.60;;;;;;5085842;28;20454;-72
2021/05/10 03:16:29;;;;;;;13.20;12.40;;;20.70;82.70;;;;;;5083758;28;20473;-72
2021/05/10 03:18:56;;;;;;;13.33;12.63;;;20.70;82.50;;;;;;5080408;28;20458;-72
2021/05/10 03:21:23;;;;;;;13.27;12.37;;;20.70;82.70;;;;;;5083758;28;21171;-72
2021/05/10 03:23:50;;;;;;;12.83;12.03;;;20.70;82.70;;;;;;5080865;28;20463;-72
2021/05/10 03:26:16;;;;;;;12.70;12.07;;;20.80;82.80;;;;;;5084650;28;20557;-72
2021/05/10 03:28:42;;;;;;;12.90;12.10;;;20.80;82.90;;;;;;5081626;28;20604;-71
2021/05/10 03:31:09;;;;;;;14.07;12.87;;;20.80;82.90;;;;;;5082076;28;20465;-71
2021/05/10 03:33:36;;;;;;;13.47;12.70;;;20.80;83.00;;;;;;5076201;28;20906;-72
2021/05/10 03:36:04;;;;;;;13.57;12.47;;;20.80;83.00;;;;;;5076810;28;21248;-72
2021/05/10 03:38:30;;;;;;;13.13;12.20;;;20.80;83.00;;;;;;5079289;28;20518;-72
2021/05/10 03:40:58;;;;;;;12.10;11.60;;;20.80;82.70;;;;;;5080429;28;20466;-72
2021/05/10 03:43:24;;;;;;;12.97;12.30;;;20.90;82.30;;;;;;5082670;28;20462;-72
2021/05/10 03:45:50;;;;;;;17.23;16.23;;;21.00;82.20;;;;;;5075616;28;20574;-77
2021/05/10 03:48:17;;;;;;;15.77;14.93;;;20.90;90.50;;;;;;5082712;28;20465;-74
2021/05/10 03:50:43;;;;;;;15.33;14.07;;;20.30;93.60;;;;;;5080628;28;20463;-74
2021/05/10 03:53:10;;;;;;;13.23;12.53;;;20.00;91.80;;;;;;5081391;28;21011;-73
2021/05/10 03:55:37;;;;;;;13.37;12.57;;;20.00;90.90;;;;;;5076097;28;20466;-74
2021/05/10 03:58:05;;;;;;;13.40;12.60;;;20.10;90.50;;;;;;5080345;28;20485;-74
2021/05/10 04:00:32;;;;;;;13.50;12.50;;;20.10;90.50;;;;;;5080564;28;20980;-75
2021/05/10 04:03:00;;;;;;;12.67;12.07;;;20.20;90.10;;;;;;5075912;28;20473;-76
2021/05/10 04:05:47;;;;;;;13.40;12.80;;;20.20;89.20;;;;;;5082232;28;20541;-76
2021/05/10 04:08:35;;;;;;;13.37;12.67;;;20.30;89.20;;;;;;5082963;28;20459;-76
2021/05/10 04:11:04;;;;;;;14.53;13.53;;;20.30;88.70;;;;;;5083230;28;21040;-75
2021/05/10 04:13:35;;;;;;;14.10;13.20;;;20.30;89.00;;;;;;5077824;28;20988;-76
2021/05/10 04:16:02;;;;;;;14.07;12.87;;;20.30;89.10;;;;;;5080195;28;20466;-75
2021/05/10 04:18:29;;;;;;;13.43;12.53;;;20.30;89.30;;;;;;5078686;28;20552;-75
2021/05/10 04:20:55;;;;;;;13.40;12.70;;;20.30;89.30;;;;;;5074395;28;20454;-77
2021/05/10 04:23:22;;;;;;;14.07;12.90;;;20.30;89.10;;;;;;5083826;28;20453;-77
2021/05/10 04:25:51;;;;;;;14.07;13.10;;;20.40;89.20;;;;;;5083466;28;20458;-74
2021/05/10 04:28:19;;;;;;;13.47;12.60;;;20.40;89.40;;;;;;5082614;28;20449;-76
2021/05/10 04:30:48;;;;;;;13.60;12.90;;;20.40;89.40;;;;;;5086148;28;20461;-73
2021/05/10 04:33:15;;;;;;;14.20;12.93;;;20.50;89.60;;;;;;5073896;28;20491;-75
2021/05/10 04:35:41;;;;;;;14.40;13.07;;;20.50;89.70;;;;;;5082014;28;20469;-77
2021/05/10 04:38:11;;;;;;;14.53;13.40;;;20.40;89.60;;;;;;5077615;28;20459;-76
2021/05/10 04:40:39;;;;;;;14.33;13.40;;;20.40;89.90;;;;;;5083395;28;20477;-75
2021/05/10 04:43:06;;;;;;;14.20;13.40;;;20.50;90.00;;;;;;5077158;28;20485;-76
2021/05/10 04:45:33;;;;;;;13.83;13.03;;;20.50;89.70;;;;;;5079008;28;20534;-75
2021/05/10 04:48:01;;;;;;;13.83;13.03;;;20.40;90.00;;;;;;5082769;28;20470;-76
2021/05/10 04:50:28;;;;;;;15.03;13.30;;;20.50;90.10;;;;;;5082711;28;20465;-75
2021/05/10 04:52:54;;;;;;;14.57;13.47;;;20.40;90.20;;;;;;5081840;28;20482;-75
2021/05/10 04:55:21;;;;;;;13.87;12.80;;;20.40;90.20;;;;;;5079341;28;20474;-75
2021/05/10 04:57:47;;;;;;;13.90;13.30;;;20.40;90.30;;;;;;5080565;28;20482;-77
2021/05/10 05:00:15;;;;;;;13.97;13.20;;;20.40;90.50;;;;;;5079150;28;21094;-75
2021/05/10 05:02:43;;;;;;;14.10;13.10;;;20.40;90.60;;;;;;5078235;28;20469;-74
2021/05/10 05:05:11;;;;;;;14.10;13.20;;;20.40;90.70;;;;;;5081698;28;20820;-78
2021/05/10 05:07:39;;;;;;;14.77;13.60;;;20.30;90.90;;;;;;5074449;28;20457;-76
2021/05/10 05:10:07;;;;;;;13.50;12.80;;;20.30;91.00;;;;;;5082087;28;20493;-76
2021/05/10 05:12:34;;;;;;;13.60;12.80;;;20.30;91.20;;;;;;5083576;28;20477;-74
2021/05/10 05:15:00;;;;;;;14.03;13.23;;;20.40;91.00;;;;;;5080809;28;20454;-78
2021/05/10 05:17:28;;;;;;;14.83;13.87;;;20.40;91.20;;;;;;5079328;28;20479;-75
2021/05/10 05:19:55;;;;;;;13.77;12.97;;;20.40;91.40;;;;;;5080630;28;20450;-77
2021/05/10 05:22:22;;;;;;;14.10;13.30;;;20.40;91.60;;;;;;5080835;28;20477;-77
2021/05/10 05:24:49;;;;;;;14.60;13.70;;;20.40;92.10;;;;;;5078322;28;20536;-76
2021/05/10 05:27:16;;;;;;;14.73;13.87;;;20.40;92.00;;;;;;5074295;28;20467;-74
2021/05/10 05:29:42;;;;;;;14.10;13.30;;;20.30;92.00;;;;;;5078842;28;20461;-78
2021/05/10 05:32:09;;;;;;;14.37;13.60;;;20.30;92.10;;;;;;5079008;28;20837;-75
2021/05/10 05:34:35;;;;;;;14.40;13.47;;;20.30;92.20;;;;;;5079589;28;20454;-74
2021/05/10 05:37:01;;;;;;;14.20;13.50;;;20.30;92.50;;;;;;5077029;28;20604;-76
2021/05/10 05:39:29;;;;;;;14.70;14.00;;;20.10;92.80;;;;;;5082176;28;20510;-74
2021/05/10 05:41:55;;;;;;;14.97;14.10;;;20.00;93.70;;;;;;5081753;28;20634;-77
2021/05/10 05:44:22;;;;;;;15.00;13.87;;;20.00;93.90;;;;;;5079627;28;20537;-76
2021/05/10 05:46:49;;;;;;;15.03;14.27;;;20.00;94.00;;;;;;5081268;28;20869;-77
2021/05/10 05:49:16;;;;;;;14.97;13.97;;;19.80;94.50;;;;;;5076931;28;20493;-75
2021/05/10 05:51:45;;;;;;;15.47;14.57;;;19.80;94.80;;;;;;5080221;28;20475;-76
2021/05/10 05:54:14;;;;;;;15.37;14.30;;;19.90;94.80;;;;;;5082479;28;20485;-76
2021/05/10 05:56:41;;;;;;;14.60;13.80;;;19.90;95.00;;;;;;5071613;28;20487;-75
2021/05/10 05:59:08;;;;;;;14.73;13.73;;;20.00;95.10;;;;;;5075871;28;20771;-76
2021/05/10 06:01:35;;;;;;;15.10;14.20;;;20.00;95.10;;;;;;5080464;28;20956;-76
2021/05/10 06:04:01;;;;;;;15.97;14.90;;;20.10;95.30;;;;;;5081284;28;20478;-75
2021/05/10 06:06:28;;;;;;;15.17;14.27;;;20.20;95.40;;;;;;5082383;28;20459;-78
2021/05/10 06:08:55;;;;;;;15.83;14.63;;;20.10;95.80;;;;;;5074522;28;20455;-75
2021/05/10 06:11:21;;;;;;;15.80;14.33;;;20.20;95.60;;;;;;5078247;28;20489;-78
2021/05/10 06:13:48;;;;;;;15.20;14.20;;;20.00;95.50;;;;;;5078197;28;20815;-75
2021/05/10 06:16:15;;;;;;;15.23;14.17;;;20.10;95.90;;;;;;5080515;28;20531;-77
2021/05/10 06:18:43;;;;;;;15.30;14.27;;;20.10;95.60;;;;;;5080404;28;20447;-78
2021/05/10 06:21:10;;;;;;;15.23;14.37;;;20.20;95.70;;;;;;5074256;28;20465;-76
2021/05/10 06:23:39;;;;;;;14.67;13.90;;;20.30;95.70;;;;;;5073701;28;20455;-76
2021/05/10 06:26:07;;;;;;;14.80;14.03;;;20.40;95.90;;;;;;5078848;28;20466;-80
2021/05/10 06:28:33;;;;;;;15.50;14.70;;;20.40;96.10;;;;;;5080784;28;20470;-75
2021/05/10 06:31:01;;;;;;;14.50;13.70;;;20.40;96.20;;;;;;5076370;28;20454;-76
2021/05/10 06:33:27;;;;;;;15.10;14.13;;;20.50;96.30;;;;;;5079120;28;20949;-76
2021/05/10 06:35:54;;;;;;;15.50;14.27;;;20.60;96.00;;;;;;5078289;28;21111;-76
2021/05/10 06:38:20;;;;;;;14.90;14.20;;;20.70;96.00;;;;;;5076662;28;20459;-75
2021/05/10 06:40:46;;;;;;;14.90;14.00;;;20.80;95.90;;;;;;5072575;28;20470;-79
2021/05/10 06:43:12;;;;;;;15.47;14.27;;;20.90;95.80;;;;;;5078282;28;20471;-76
2021/05/10 06:45:39;;;;;;;15.03;14.23;;;21.10;95.60;;;;;;5075728;28;20486;-75
2021/05/10 06:48:06;;;;;;;15.30;14.43;;;21.30;95.30;;;;;;5080051;28;20450;-77
2021/05/10 06:50:33;;;;;;;15.00;13.90;;;21.50;94.90;;;;;;5082533;28;20549;-77
2021/05/10 06:52:59;;;;;;;14.93;13.87;;;21.70;94.60;;;;;;5079053;28;20486;-79
2021/05/10 06:55:26;;;;;;;14.43;13.73;;;21.60;94.70;;;;;;5083374;28;20464;-78
2021/05/10 06:57:52;;;;;;;14.37;13.67;;;22.00;94.30;;;;;;5083527;28;20489;-76
2021/05/10 07:00:19;;;;;;;14.20;13.30;;;21.80;94.60;;;;;;5082298;28;20463;-77
2021/05/10 07:02:46;;;;;;;14.57;13.83;;;21.90;94.10;;;;;;5083924;28;20822;-76
2021/05/10 07:05:13;;;;;;;15.00;14.20;;;21.80;93.50;;;;;;5083137;28;20446;-77
2021/05/10 07:07:40;;;;;;;14.03;13.30;;;21.60;93.80;;;;;;5084274;28;20502;-77
2021/05/10 07:10:07;;;;;;;13.70;13.10;;;21.30;93.40;;;;;;5074691;28;20605;-78
2021/05/10 07:12:34;;;;;;;13.23;12.63;;;20.70;94.40;;;;;;5073977;28;20489;-79
2021/05/10 07:15:01;;;;;;;14.10;13.40;;;20.40;94.60;;;;;;5081802;28;20933;-76
2021/05/10 07:17:27;;;;;;;13.87;13.27;;;20.10;94.90;;;;;;5075764;28;20839;-80
2021/05/10 07:19:53;;;;;;;13.53;12.93;;;20.30;95.00;;;;;;5079275;28;20458;-78
2021/05/10 07:22:21;;;;;;;13.30;12.70;;;20.20;94.80;;;;;;5083753;28;20839;-75
2021/05/10 07:24:48;;;;;;;13.37;12.77;;;20.10;95.30;;;;;;5078644;28;20458;-76
2021/05/10 07:27:15;;;;;;;13.23;12.63;;;19.80;95.30;;;;;;5077743;28;20466;-76
2021/05/10 07:29:42;;;;;;;13.40;12.80;;;19.80;95.70;;;;;;5084250;28;20534;-76
2021/05/10 07:32:08;;;;;;;13.97;13.07;;;19.60;95.70;;;;;;5081757;28;21410;-76
2021/05/10 07:34:35;;;;;;;13.70;13.10;;;19.40;96.20;;;;;;5088429;28;20457;-76
2021/05/10 07:37:01;;;;;;;13.60;13.00;;;19.40;95.80;;;;;;5085636;28;20466;-76
2021/05/10 07:39:29;;;;;;;13.50;13.00;;;19.40;96.20;;;;;;5080675;28;20617;-76
2021/05/10 07:41:56;;;;;;;14.27;13.30;;;19.40;96.50;;;;;;5081898;28;20976;-78
2021/05/10 07:44:22;;;;;;;13.77;13.17;;;19.20;97.10;;;;;;5081200;28;20493;-79
2021/05/10 07:46:49;;;;;;;14.50;13.70;;;19.50;97.20;;;;;;5080783;28;20474;-78
2021/05/10 07:49:15;;;;;;;14.03;13.43;;;19.60;97.30;;;;;;5079606;28;20994;-76
2021/05/10 07:51:42;;;;;;;14.07;13.47;;;19.70;97.50;;;;;;5082386;28;20462;-76
2021/05/10 07:54:08;;;;;;;14.20;13.30;;;19.80;97.50;;;;;;5077121;28;20481;-76
2021/05/10 07:56:36;;;;;;;13.10;12.50;;;19.80;97.40;;;;;;5076239;28;20886;-79
2021/05/10 07:59:03;;;;;;;12.97;12.40;;;19.80;97.90;;;;;;5077799;28;20683;-76
2021/05/10 08:01:29;;;;;;;13.90;13.30;;;19.60;98.00;;;;;;5075497;28;20961;-81
2021/05/10 08:03:56;;;;;;;14.00;13.20;;;19.50;98.50;;;;;;5081623;28;20458;-77
2021/05/10 08:06:22;;;;;;;14.10;13.40;;;19.50;98.20;;;;;;5081026;28;20471;-77
2021/05/10 08:08:49;;;;;;;13.90;13.10;;;19.60;98.10;;;;;;5077112;28;21044;-77
2021/05/10 08:11:17;;;;;;;13.80;13.20;;;19.60;98.30;;;;;;5079104;28;20565;-77
2021/05/10 08:13:45;;;;;;;13.90;13.30;;;19.80;98.50;;;;;;5079880;28;20535;-78
2021/05/10 08:16:11;;;;;;;13.53;12.83;;;20.00;98.70;;;;;;5076609;28;20463;-79
2021/05/10 08:18:41;;;;;;;13.70;13.10;;;20.00;98.20;;;;;;5079307;28;20455;-84
2021/05/10 08:21:08;;;;;;;13.90;13.00;;;20.10;98.00;;;;;;5084883;28;20458;-76
2021/05/10 08:23:35;;;;;;;14.03;13.00;;;20.00;98.30;;;;;;5086045;28;20500;-77
2021/05/10 08:26:01;;;;;;;13.83;13.13;;;19.90;98.60;;;;;;5083552;28;20466;-80
2021/05/10 08:28:28;;;;;;;13.63;13.03;;;19.80;99.00;;;;;;5084313;28;20952;-77
2021/05/10 08:30:56;;;;;;;13.60;12.97;;;19.90;99.10;;;;;;5078223;28;20462;-77
2021/05/10 08:33:23;;;;;;;13.00;12.50;;;19.70;99.30;;;;;;5082254;28;20556;-76
2021/05/10 08:35:49;;;;;;;14.03;13.33;;;19.60;99.50;;;;;;5077297;28;20466;-81
2021/05/10 08:38:15;;;;;;;22.03;13.70;;;19.50;99.60;;;;;;5067650;28;20774;-80
2021/05/10 08:40:44;;;;;;;13.97;13.37;;;19.60;99.70;;;;;;5077326;28;20527;-82
2021/05/10 08:43:18;;;;;;;13.83;13.23;;;19.90;99.80;;;;;;5073832;28;21082;-76
2021/05/10 08:45:50;;;;;;;14.00;13.20;;;20.00;99.10;;;;;;5070974;28;21083;-76
2021/05/10 08:48:17;;;;;;;14.80;13.97;;;19.90;99.10;;;;;;5080185;28;20467;-77
2021/05/10 08:50:43;;;;;;;14.40;13.80;;;19.80;99.70;;;;;;5074002;28;20818;-80
2021/05/10 08:53:12;;;;;;;14.13;13.53;;;19.70;98.90;;;;;;5083659;28;20498;-80
2021/05/10 08:55:39;;;;;;;14.37;13.67;;;19.60;97.60;;;;;;5079845;28;20467;-76
2021/05/10 08:58:07;;;;;;;13.97;13.37;;;19.70;97.30;;;;;;5079114;28;20486;-80
2021/05/10 09:00:34;;;;;;;14.00;13.30;;;19.60;97.40;;;;;;5080729;28;20507;-79
2021/05/10 09:03:09;;;;;;;14.50;13.60;;;19.70;97.30;;;;;;5080476;28;20827;-81
2021/05/10 09:05:46;;;;;;;14.20;13.40;;;19.70;97.50;;;;;;5075443;28;20462;-76
2021/05/10 09:08:13;;;;;;;14.73;13.77;;;19.80;97.10;;;;;;5072119;28;21033;-76
2021/05/10 09:10:40;;;;;;;14.50;13.17;;;19.80;97.60;;;;;;5081130;28;20998;-76
2021/05/10 09:13:07;;;;;;;13.70;12.80;;;19.70;97.50;;;;;;5071108;28;20482;-80
2021/05/10 09:15:34;;;;;;;13.13;12.63;;;20.10;97.40;;;;;;5072766;28;20826;-76
2021/05/10 09:18:02;;;;;;;13.30;12.70;;;20.40;96.80;;;;;;5070104;28;20558;-77
2021/05/10 09:20:30;;;;;;;15.07;13.90;;;20.40;96.70;;;;;;5075246;28;20556;-76
2021/05/10 09:22:59;;;;;;;13.60;13.00;;;20.60;97.00;;;;;;5067458;28;20466;-80
2021/05/10 09:25:30;;;;;;;14.13;13.53;;;20.90;95.80;;;;;;5072875;28;20599;-77
2021/05/10 09:28:11;;;;;;;13.97;13.37;;;21.30;95.50;;;;;;5074934;28;20838;-76
2021/05/10 09:30:39;;;;;;;13.43;12.93;;;21.40;95.60;;;;;;5069294;28;20565;-81
2021/05/10 09:33:06;;;;;;;13.43;12.73;;;22.00;95.20;;;;;;5071591;28;20533;-77
2021/05/10 09:35:32;;;;;;;14.40;13.30;;;22.10;94.80;;;;;;5069739;28;20454;-79
2021/05/10 09:38:05;;;;;;;13.27;12.67;;;21.50;95.90;;;;;;5072407;28;20486;-76
2021/05/10 09:40:48;;;;;;;13.80;13.20;;;21.20;96.00;;;;;;5066610;28;20458;-80
2021/05/10 09:43:17;;;;;;;13.60;12.80;;;21.10;95.30;;;;;;5077883;28;20450;-76
2021/05/10 09:45:48;;;;;;;13.60;13.00;;;20.80;96.10;;;;;;5071660;28;20601;-77
2021/05/10 09:48:24;;;;;;;13.50;12.90;;;20.80;96.20;;;;;;5073929;28;20535;-77
2021/05/10 09:50:52;;;;;;;13.77;12.83;;;20.60;96.90;;;;;;5070169;28;20469;-76
2021/05/10 09:53:32;;;;;;;13.77;13.17;;;20.40;96.80;;;;;;5066975;28;20520;-76
2021/05/10 09:55:59;;;;;;;14.50;13.70;;;20.20;97.70;;;;;;5071809;28;20834;-76
2021/05/10 09:58:38;;;;;;;14.40;13.60;;;20.20;98.10;;;;;;5072489;28;20472;-76
2021/05/10 10:01:05;;;;;;;14.70;14.00;;;20.20;98.10;;;;;;5071695;28;20458;-75
2021/05/10 10:03:37;;;;;;;14.20;13.50;;;19.70;99.90;;;;;;5071795;28;20462;-79
2021/05/10 10:06:06;;;;;;;14.17;13.57;;;19.30;99.90;;;;;;5070951;28;20473;-77
2021/05/10 10:08:34;;;;;;;14.70;14.00;;;19.20;99.90;;;;;;5077223;28;20466;-79
2021/05/10 10:11:01;;;;;;;14.40;13.60;;;19.10;99.90;;;;;;5073928;28;20492;-76
2021/05/10 10:13:28;;;;;;;15.00;14.30;;;18.90;99.90;;;;;;5068640;28;20501;-76
2021/05/10 10:15:57;;;;;;;13.77;13.17;;;18.60;99.90;;;;;;5071062;28;21078;-77
2021/05/10 10:18:24;;;;;;;14.07;13.47;;;18.80;99.90;;;;;;5074510;28;20461;-76
2021/05/10 10:20:52;;;;;;;14.20;13.60;;;18.70;99.90;;;;;;5073562;28;20933;-76
2021/05/10 10:23:19;;;;;;;14.50;13.60;;;19.00;99.90;;;;;;5078435;28;20487;-79
2021/05/10 10:25:47;;;;;;;14.40;13.60;;;19.30;99.90;;;;;;5075889;28;20465;-76
2021/05/10 10:28:16;;;;;;;14.87;14.07;;;19.70;99.90;;;;;;5075425;28;20872;-75
2021/05/10 10:30:46;;;;;;;14.37;13.67;;;19.80;99.90;;;;;;5078791;28;20465;-76
2021/05/10 10:33:20;;;;;;;15.40;14.40;;;20.00;99.90;;;;;;5075566;28;20580;-76
2021/05/10 10:35:47;;;;;;;13.93;13.23;;;20.20;99.90;;;;;;5074141;28;20467;-75
2021/05/10 10:38:25;;;;;;;13.77;13.17;;;20.50;99.90;;;;;;5075054;28;20462;-76
2021/05/10 10:41:23;;;;;;;14.67;13.77;;;20.40;99.90;;;;;;5073717;28;20462;-76
2021/05/10 10:43:50;;;;;;;14.40;13.70;;;20.40;99.90;;;;;;5072385;28;20505;-77
2021/05/10 10:46:25;;;;;;;14.93;14.13;;;20.60;99.90;;;;;;5076400;28;20916;-79
2021/05/10 10:48:54;;;;;;;14.47;13.87;;;20.80;99.90;;;;;;5072933;28;20461;-77
2021/05/10 10:51:21;;;;;;;14.53;13.80;;;21.70;99.90;;;;;;5055700;28;20454;-75
2021/05/10 10:53:50;;;;;;;14.37;13.57;;;22.20;99.90;;;;;;5074048;28;20490;-76
2021/05/10 10:56:16;;;;;;;15.20;14.50;;;22.30;98.90;;;;;;5069121;28;20525;-74
2021/05/10 10:58:51;;;;;;;14.87;14.27;;;22.30;99.00;;;;;;5074127;28;20512;-74
2021/05/10 11:01:22;;;;;;;14.83;14.03;;;22.60;98.20;;;;;;5070547;28;20461;-74
2021/05/10 11:03:49;;;;;;;14.67;13.77;;;22.70;97.90;;;;;;5075870;28;20469;-72
2021/05/10 11:06:17;;;;;;;14.83;13.90;;;22.30;97.30;;;;;;5074726;28;20462;-74
2021/05/10 11:08:45;;;;;;;14.70;14.10;;;21.70;98.00;;;;;;5076756;28;20470;-73
2021/05/10 11:11:13;;;;;;;15.67;14.73;;;21.60;98.70;;;;;;5076628;28;20461;-74
2021/05/10 11:13:41;;;;;;;14.53;13.83;;;21.80;98.20;;;;;;5070717;28;20729;-74
2021/05/10 11:16:14;;;;;;;14.70;14.00;;;21.50;98.40;;;;;;5078755;28;20648;-73
2021/05/10 11:18:47;;;;;;;14.77;14.07;;;21.40;98.40;;;;;;5073047;28;21256;-74
2021/05/10 11:21:38;;;;;;;14.33;13.73;;;21.10;99.00;;;;;;5073102;28;20487;-75
2021/05/10 11:24:08;;;;;;;15.10;14.40;;;20.50;99.50;;;;;;5066517;28;20485;-74
2021/05/10 11:26:39;;;;;;;14.33;13.63;;;20.40;99.90;;;;;;5073710;28;20459;-75
2021/05/10 11:29:07;;;;;;;14.20;13.50;;;20.30;99.90;;;;;;5079738;28;20455;-76
2021/05/10 11:31:37;;;;;;;13.97;13.13;;;20.00;99.90;;;;;;5075197;28;21057;-74
2021/05/10 11:34:10;;;;;;;14.23;13.43;;;18.60;99.90;;;;;;5074895;28;20486;-74
2021/05/10 11:36:49;;;;;;;14.17;13.43;;;17.70;99.90;;;;;;5074867;28;20463;-74
2021/05/10 11:39:25;;;;;;;13.70;12.90;;;17.20;99.90;;;;;;5074954;28;20846;-75
2021/05/10 11:41:59;;;;;;;13.97;13.17;;;16.90;99.90;;;;;;5076407;28;20549;-74
2021/05/10 11:44:27;;;;;;;13.07;12.27;;;16.70;99.90;;;;;;5072580;28;20979;-74
2021/05/10 11:46:55;;;;;;;12.90;12.30;;;16.30;99.90;;;;;;5083529;28;20462;-74
2021/05/10 11:49:30;;;;;;;12.53;11.73;;;16.30;99.90;;;;;;5081894;28;20711;-74
2021/05/10 11:51:58;;;;;;;12.87;12.13;;;16.30;99.90;;;;;;5078925;28;20454;-74
2021/05/10 11:54:25;;;;;;;12.70;12.10;;;16.30;99.90;;;;;;5075799;28;20490;-74
2021/05/10 11:56:54;;;;;;;12.87;12.17;;;16.20;99.90;;;;;;5075854;28;20565;-76
2021/05/10 11:59:32;;;;;;;12.10;11.23;;;16.10;99.90;;;;;;5078945;28;20773;-76
2021/05/10 12:02:00;;;;;;;12.87;12.07;;;16.10;99.90;;;;;;5077524;28;20502;-77
2021/05/10 12:04:28;;;;;;;14.90;14.20;;;15.90;99.90;;;;;;5077855;28;21184;-80
2021/05/10 12:06:54;;;;;;;17.80;16.80;;;16.00;99.90;;;;;;5081642;28;20484;-76
2021/05/10 12:09:38;;;;;;;16.37;15.27;;;15.80;99.90;;;;;;5079958;28;20466;-74
2021/05/10 12:12:06;;;;;;;14.03;13.23;;;15.60;99.90;;;;;;5070369;28;20951;-76
2021/05/10 12:14:33;;;;;;;14.17;13.17;;;15.60;99.90;;;;;;5078364;28;20469;-75
2021/05/10 12:17:11;;;;;;;13.27;12.60;;;15.70;99.90;;;;;;5081990;28;20828;-75
2021/05/10 12:20:06;;;;;;;13.40;12.70;;;16.10;99.90;;;;;;5080534;28;20500;-76
2021/05/10 12:22:35;;;;;;;14.33;13.33;;;16.30;99.90;;;;;;5038629;28;20466;-76
2021/05/10 12:25:07;;;;;;;13.93;13.23;;;16.50;99.90;;;;;;5076108;28;20849;-76
2021/05/10 12:27:39;;;;;;;13.10;12.50;;;16.60;99.90;;;;;;5076995;28;20458;-75
2021/05/10 12:30:12;;;;;;;13.43;12.63;;;17.10;99.90;;;;;;5075427;28;20458;-75
2021/05/10 12:32:40;;;;;;;13.80;13.00;;;17.20;99.90;;;;;;5079965;28;21026;-76